Jefferson Park, New York
Current Conditions -  °F | °C
As of 12:56 AM on Monday 26 Jan 2015 (Local Time) from KART Reporting Station
Clear Clear  
Wind Chill: -23°   Ceiling: Unl
Heat Index: -17°   Visibility: 10mi
Dew Point: -22°   Wind: 5mph
Humidity: 66%   Direction: 80°E
Pressure: 30.13"   Gusts: NA
Location:  43.8534°N, 76.251°W
Report Text: KART 260556Z AUTO 08004KT 10SM CLR M17/M22 A3013 RMK AO2 SLP215 T11721222 11139 21194 51011
Loading
Personal Weather Stations






























Interactive Weather Map New forecast layout! Learn more

10-Day Weather Forecast

Advertisements
Track Severe Weather on mobile